Time;durP1;ratioP1;P1;durP2;ratioP2;P2;SDS_P1;SDS_P2;PMS_P1;PMS_P2;Temp;Humidity;BMP_temperature;BMP_pressure;BME280_temperature;BME280_humidity;BME280_pressure;Samples;Min_cycle;Max_cycle;Signal;HPM_P1;HPM_P2
2021/12/13 00:02:32;;;;;;;89.70;37.47;;;;;;;;;;6192165;28;20265;-64
2021/12/13 00:05:55;;;;;;;170.23;45.37;;;;;;;;;;6191589;28;20455;-64
2021/12/13 00:09:19;;;;;;;282.47;56.67;;;;;;;;;;6188848;28;20225;-64
2021/12/13 00:12:43;;;;;;;189.07;48.90;;;;;;;;;;6188277;28;20237;-62
2021/12/13 00:16:07;;;;;;;274.40;57.70;;;;;;;;;;6187731;28;20241;-63
2021/12/13 00:19:33;;;;;;;242.87;50.73;;;;;;;;;;6175383;28;20663;-63
2021/12/13 00:22:56;;;;;;;89.40;39.07;;;;;;;;;;6190569;28;20226;-63
2021/12/13 00:26:29;;;;;;;200.77;51.33;;;;;;;;;;6186543;28;20651;-63
2021/12/13 00:29:55;;;;;;;74.77;36.47;;;;;;;;;;6189670;28;20249;-63
2021/12/13 00:33:21;;;;;;;111.30;39.80;;;;;;;;;;6195272;28;20230;-62
2021/12/13 00:36:44;;;;;;;64.43;33.37;;;;;;;;;;6188535;28;20226;-61
2021/12/13 00:40:10;;;;;;;71.30;37.60;;;;;;;;;;6192798;28;20234;-62
2021/12/13 00:43:36;;;;;;;57.10;34.30;;;;;;;;;;6187845;28;20225;-63
2021/12/13 00:47:04;;;;;;;48.37;29.43;;;;;;;;;;6185586;28;20229;-63
2021/12/13 00:50:30;;;;;;;56.83;30.17;;;;;;;;;;6188356;28;20229;-63
2021/12/13 00:53:52;;;;;;;59.90;33.10;;;;;;;;;;6175758;28;20226;-62
2021/12/13 00:57:46;;;;;;;50.30;30.30;;;;;;;;;;6166476;28;20242;-63
2021/12/13 01:01:08;;;;;;;51.07;26.37;;;;;;;;;;6160431;28;20226;-62
2021/12/13 01:04:54;;;;;;;53.43;27.80;;;;;;;;;;6155587;28;20231;-64
2021/12/13 01:08:32;;;;;;;43.03;25.83;;;;;;;;;;6165368;28;20238;-63
2021/12/13 01:11:56;;;;;;;39.70;23.83;;;;;;;;;;6165185;28;20238;-63
2021/12/13 01:15:28;;;;;;;37.37;24.93;;;;;;;;;;6189141;28;20225;-63
2021/12/13 01:19:01;;;;;;;31.77;20.67;;;;;;;;;;6151742;28;20230;-63
2021/12/13 01:22:46;;;;;;;41.50;22.50;;;;;;;;;;6176394;28;20241;-62
2021/12/13 01:26:27;;;;;;;45.10;24.83;;;;;;;;;;6191069;28;20222;-62
2021/12/13 01:29:51;;;;;;;48.53;24.53;;;;;;;;;;6185846;28;20420;-63
2021/12/13 01:33:14;;;;;;;31.33;20.13;;;;;;;;;;6172187;28;20234;-62
2021/12/13 01:36:43;;;;;;;33.80;19.50;;;;;;;;;;6175171;28;20233;-63
2021/12/13 01:40:12;;;;;;;27.67;20.43;;;;;;;;;;6177780;28;20320;-63
2021/12/13 01:43:33;;;;;;;23.60;17.67;;;;;;;;;;6171673;28;20241;-62
2021/12/13 01:46:58;;;;;;;24.30;16.37;;;;;;;;;;6173841;28;20257;-62
2021/12/13 01:50:22;;;;;;;26.77;17.27;;;;;;;;;;6185642;28;20725;-63
2021/12/13 01:53:45;;;;;;;21.83;15.43;;;;;;;;;;6171455;28;20233;-63
2021/12/13 01:57:22;;;;;;;23.23;15.40;;;;;;;;;;6144228;28;20241;-63
2021/12/13 02:01:09;;;;;;;21.43;15.10;;;;;;;;;;6184625;28;20230;-63
2021/12/13 02:04:26;;;;;;;20.53;13.63;;;;;;;;;;6184265;28;20226;-63
2021/12/13 02:07:49;;;;;;;21.03;13.50;;;;;;;;;;6181256;28;20673;-63
2021/12/13 02:11:10;;;;;;;21.60;15.50;;;;;;;;;;6186410;28;20510;-64
2021/12/13 02:14:34;;;;;;;18.93;13.83;;;;;;;;;;6157578;28;20261;-63
2021/12/13 02:17:56;;;;;;;21.80;14.47;;;;;;;;;;6182208;28;20238;-62
2021/12/13 02:21:25;;;;;;;18.67;13.43;;;;;;;;;;6183450;28;20226;-62
2021/12/13 02:24:47;;;;;;;23.07;15.60;;;;;;;;;;6182528;28;20230;-62
2021/12/13 02:28:11;;;;;;;21.37;14.13;;;;;;;;;;6182308;28;20230;-62
2021/12/13 02:31:37;;;;;;;21.80;13.40;;;;;;;;;;6184817;28;20230;-62
2021/12/13 02:34:59;;;;;;;27.83;16.13;;;;;;;;;;6184262;28;20675;-63
2021/12/13 02:38:22;;;;;;;19.83;12.90;;;;;;;;;;6188683;28;20316;-62
2021/12/13 02:41:45;;;;;;;22.30;14.30;;;;;;;;;;6191328;28;20542;-63
2021/12/13 02:45:14;;;;;;;19.23;13.67;;;;;;;;;;6191654;28;20253;-62
2021/12/13 02:48:40;;;;;;;15.87;12.07;;;;;;;;;;6189164;28;20599;-62
2021/12/13 02:52:06;;;;;;;18.23;12.13;;;;;;;;;;6186468;28;20234;-62
2021/12/13 02:55:29;;;;;;;19.17;12.67;;;;;;;;;;6193417;28;20225;-63
2021/12/13 02:58:53;;;;;;;20.33;12.07;;;;;;;;;;6190949;28;20226;-63
2021/12/13 03:02:17;;;;;;;16.87;12.27;;;;;;;;;;6188452;28;20225;-63
2021/12/13 03:05:41;;;;;;;19.00;11.83;;;;;;;;;;6192927;28;20234;-63
2021/12/13 03:09:07;;;;;;;17.97;12.13;;;;;;;;;;6188400;28;20225;-63
2021/12/13 03:12:29;;;;;;;19.87;12.73;;;;;;;;;;6190257;28;20255;-63
2021/12/13 03:15:54;;;;;;;19.27;11.83;;;;;;;;;;6192250;28;20588;-63
2021/12/13 03:19:24;;;;;;;20.30;12.50;;;;;;;;;;6188689;28;20230;-62
2021/12/13 03:23:03;;;;;;;25.57;14.00;;;;;;;;;;6190855;28;20232;-63
2021/12/13 03:26:35;;;;;;;22.27;13.37;;;;;;;;;;6188547;28;20279;-63
2021/12/13 03:30:00;;;;;;;19.23;14.27;;;;;;;;;;6186414;28;20237;-63
2021/12/13 03:33:32;;;;;;;19.50;13.57;;;;;;;;;;6191304;28;20221;-63
2021/12/13 03:36:59;;;;;;;20.50;13.43;;;;;;;;;;6188252;28;20269;-63
2021/12/13 03:40:21;;;;;;;22.20;13.13;;;;;;;;;;6187166;28;20226;-63
2021/12/13 03:43:44;;;;;;;23.80;13.90;;;;;;;;;;6188947;28;20234;-64
2021/12/13 03:47:15;;;;;;;18.63;11.70;;;;;;;;;;6172342;28;20234;-64
2021/12/13 03:50:41;;;;;;;16.80;11.27;;;;;;;;;;6192001;28;20261;-63
2021/12/13 03:54:04;;;;;;;14.73;10.13;;;;;;;;;;6182253;28;20230;-63
2021/12/13 03:57:25;;;;;;;17.60;11.90;;;;;;;;;;6185577;28;20241;-63
2021/12/13 04:00:49;;;;;;;17.73;11.43;;;;;;;;;;6182968;28;20500;-63
2021/12/13 04:04:14;;;;;;;16.53;11.67;;;;;;;;;;6185324;28;20238;-63
2021/12/13 04:07:40;;;;;;;20.67;12.10;;;;;;;;;;6179485;28;20238;-62
2021/12/13 04:11:09;;;;;;;24.63;13.83;;;;;;;;;;6182760;28;20241;-63
2021/12/13 04:14:34;;;;;;;17.70;11.87;;;;;;;;;;6183792;28;20230;-63
2021/12/13 04:18:02;;;;;;;20.43;13.07;;;;;;;;;;6184459;28;20697;-64
2021/12/13 04:21:26;;;;;;;18.67;12.37;;;;;;;;;;6190616;28;20240;-63
2021/12/13 04:24:50;;;;;;;19.97;12.87;;;;;;;;;;6184951;28;20265;-62
2021/12/13 04:28:14;;;;;;;23.30;14.50;;;;;;;;;;6186979;28;20231;-63
2021/12/13 04:31:37;;;;;;;18.77;13.77;;;;;;;;;;6180879;28;20221;-62
2021/12/13 04:34:59;;;;;;;17.90;13.43;;;;;;;;;;6185927;28;20231;-63
2021/12/13 04:38:24;;;;;;;23.90;15.80;;;;;;;;;;6186596;28;20241;-63
2021/12/13 04:41:48;;;;;;;24.50;16.60;;;;;;;;;;6190167;28;20218;-63
2021/12/13 04:45:12;;;;;;;21.27;12.93;;;;;;;;;;6187860;28;20226;-63
2021/12/13 04:48:34;;;;;;;20.87;12.97;;;;;;;;;;6188716;28;20234;-64
2021/12/13 04:51:59;;;;;;;20.37;12.90;;;;;;;;;;6184162;28;20261;-62
2021/12/13 04:55:23;;;;;;;25.57;14.20;;;;;;;;;;6186560;28;20234;-63
2021/12/13 04:58:48;;;;;;;16.57;12.57;;;;;;;;;;6188689;28;20241;-63
2021/12/13 05:02:11;;;;;;;20.07;12.90;;;;;;;;;;6183709;28;20237;-63
2021/12/13 05:05:35;;;;;;;23.47;13.70;;;;;;;;;;6190611;28;20604;-63
2021/12/13 05:09:00;;;;;;;23.47;13.40;;;;;;;;;;6188845;28;20330;-64
2021/12/13 05:12:25;;;;;;;20.33;13.77;;;;;;;;;;6179350;28;20232;-63
2021/12/13 05:15:55;;;;;;;24.40;15.77;;;;;;;;;;6185898;28;20225;-64
2021/12/13 05:19:26;;;;;;;22.20;16.23;;;;;;;;;;6180170;28;20464;-63
2021/12/13 05:22:49;;;;;;;21.77;15.93;;;;;;;;;;6189666;28;20229;-63
2021/12/13 05:26:10;;;;;;;23.93;15.50;;;;;;;;;;6185099;28;20226;-63
2021/12/13 05:29:34;;;;;;;23.73;15.33;;;;;;;;;;6157899;28;20527;-62
2021/12/13 05:32:59;;;;;;;18.60;14.60;;;;;;;;;;6171869;28;20320;-63
2021/12/13 05:36:22;;;;;;;18.60;13.23;;;;;;;;;;6187377;28;20241;-63
2021/12/13 05:39:57;;;;;;;18.30;13.53;;;;;;;;;;6187430;28;20237;-62
2021/12/13 05:43:22;;;;;;;16.63;11.93;;;;;;;;;;6185550;28;20226;-63
2021/12/13 05:46:45;;;;;;;15.33;12.87;;;;;;;;;;6187091;28;20257;-62
2021/12/13 05:50:09;;;;;;;20.30;13.33;;;;;;;;;;6184740;28;20434;-63
2021/12/13 05:53:32;;;;;;;16.53;11.93;;;;;;;;;;6185645;28;20230;-63
2021/12/13 05:56:56;;;;;;;16.37;11.40;;;;;;;;;;6187674;28;20421;-63
2021/12/13 06:00:21;;;;;;;15.67;11.40;;;;;;;;;;6182709;28;20234;-64
2021/12/13 06:03:49;;;;;;;14.40;11.40;;;;;;;;;;6167659;28;20245;-64
2021/12/13 06:07:24;;;;;;;15.63;12.30;;;;;;;;;;6190894;28;20233;-64
2021/12/13 06:10:50;;;;;;;15.40;11.97;;;;;;;;;;6183734;28;20252;-63
2021/12/13 06:14:18;;;;;;;13.93;11.97;;;;;;;;;;6185272;28;20316;-63
2021/12/13 06:17:42;;;;;;;16.07;12.03;;;;;;;;;;6182033;28;20233;-64
2021/12/13 06:21:22;;;;;;;17.23;13.27;;;;;;;;;;6184020;28;20229;-62
2021/12/13 06:24:47;;;;;;;14.07;12.00;;;;;;;;;;6183837;28;20535;-64
2021/12/13 06:28:18;;;;;;;16.40;12.47;;;;;;;;;;6178681;28;20225;-63
2021/12/13 06:31:40;;;;;;;19.43;13.20;;;;;;;;;;6185901;28;20241;-63
2021/12/13 06:35:35;;;;;;;20.37;14.57;;;;;;;;;;6185554;28;20229;-63
2021/12/13 06:38:57;;;;;;;19.33;13.43;;;;;;;;;;6180351;28;20232;-63
2021/12/13 06:42:26;;;;;;;18.83;14.00;;;;;;;;;;6168420;28;20250;-64
2021/12/13 06:45:47;;;;;;;21.43;16.47;;;;;;;;;;6174405;28;20234;-66
2021/12/13 06:49:22;;;;;;;25.67;15.93;;;;;;;;;;6169950;28;21170;-65
2021/12/13 06:52:44;;;;;;;24.73;17.90;;;;;;;;;;6181520;28;20261;-65
2021/12/13 06:56:23;;;;;;;26.67;18.50;;;;;;;;;;6187942;28;20230;-65
2021/12/13 06:59:50;;;;;;;32.20;20.03;;;;;;;;;;6180750;28;20233;-65
2021/12/13 07:03:13;;;;;;;24.20;16.17;;;;;;;;;;6177557;28;20317;-65
2021/12/13 07:06:34;;;;;;;24.57;17.03;;;;;;;;;;6182689;28;20258;-63
2021/12/13 07:09:58;;;;;;;26.63;17.77;;;;;;;;;;6171115;28;20257;-65
2021/12/13 07:13:23;;;;;;;27.27;19.83;;;;;;;;;;6176340;28;20321;-63
2021/12/13 07:16:50;;;;;;;24.93;16.07;;;;;;;;;;6184766;28;20229;-64
2021/12/13 07:20:15;;;;;;;25.57;16.47;;;;;;;;;;6181480;28;20233;-66
2021/12/13 07:23:54;;;;;;;26.93;16.23;;;;;;;;;;6187444;28;20313;-66
2021/12/13 07:27:17;;;;;;;21.83;15.30;;;;;;;;;;6189764;28;20249;-67
2021/12/13 07:30:39;;;;;;;21.07;15.83;;;;;;;;;;6186985;28;20226;-64
2021/12/13 07:34:11;;;;;;;20.70;15.53;;;;;;;;;;6186174;28;20229;-65
2021/12/13 07:37:39;;;;;;;23.10;14.83;;;;;;;;;;6188127;28;20275;-65
2021/12/13 07:41:03;;;;;;;17.13;14.07;;;;;;;;;;6185855;28;20237;-65
2021/12/13 07:44:38;;;;;;;18.03;13.43;;;;;;;;;;6175836;28;20327;-64
2021/12/13 07:48:03;;;;;;;17.80;12.17;;;;;;;;;;6175952;28;20225;-65
2021/12/13 07:51:28;;;;;;;17.50;13.23;;;;;;;;;;6169851;28;20233;-64
2021/12/13 07:54:49;;;;;;;15.60;13.80;;;;;;;;;;6178562;28;20237;-65
2021/12/13 07:58:10;;;;;;;15.40;12.77;;;;;;;;;;6174420;28;20560;-59
2021/12/13 08:01:34;;;;;;;17.13;15.03;;;;;;;;;;6175816;28;20753;-62
2021/12/13 08:04:57;;;;;;;20.17;15.30;;;;;;;;;;6175433;28;20501;-61
2021/12/13 08:08:24;;;;;;;13.50;11.40;;;;;;;;;;6167085;28;20612;-60
2021/12/13 08:11:49;;;;;;;15.60;12.03;;;;;;;;;;6180220;28;20233;-61
2021/12/13 08:15:14;;;;;;;15.10;11.00;;;;;;;;;;6178682;28;20238;-64
2021/12/13 08:18:37;;;;;;;16.13;12.43;;;;;;;;;;6188697;28;20324;-63
2021/12/13 08:21:59;;;;;;;17.80;15.57;;;;;;;;;;6186399;28;20250;-65
2021/12/13 08:25:25;;;;;;;17.57;13.80;;;;;;;;;;6181788;28;20631;-64
2021/12/13 08:28:48;;;;;;;16.20;12.93;;;;;;;;;;6182402;28;20226;-63
2021/12/13 08:32:13;;;;;;;18.63;13.10;;;;;;;;;;6181034;28;20526;-63
2021/12/13 08:35:52;;;;;;;16.07;14.33;;;;;;;;;;6180974;28;21570;-63
2021/12/13 08:39:15;;;;;;;17.20;12.43;;;;;;;;;;6186468;28;20325;-63
2021/12/13 08:42:40;;;;;;;13.90;12.47;;;;;;;;;;6176399;28;20250;-63
2021/12/13 08:46:02;;;;;;;16.10;13.47;;;;;;;;;;6184558;28;20563;-63
2021/12/13 08:49:31;;;;;;;14.90;12.20;;;;;;;;;;6184872;28;20908;-62
2021/12/13 08:52:56;;;;;;;18.50;14.97;;;;;;;;;;6187817;28;20233;-63
2021/12/13 08:56:21;;;;;;;16.03;13.37;;;;;;;;;;6188236;28;20230;-62
2021/12/13 08:59:51;;;;;;;15.10;13.37;;;;;;;;;;6186837;28;21782;-63
2021/12/13 09:03:30;;;;;;;18.80;16.80;;;;;;;;;;6187939;28;20237;-63
2021/12/13 09:06:54;;;;;;;20.27;16.43;;;;;;;;;;6185615;28;20246;-63
2021/12/13 09:10:14;;;;;;;17.03;15.23;;;;;;;;;;6186747;28;20261;-62
2021/12/13 09:13:40;;;;;;;18.10;16.23;;;;;;;;;;6180278;28;20648;-64
2021/12/13 09:17:10;;;;;;;16.33;14.20;;;;;;;;;;6175990;28;20554;-64
2021/12/13 09:20:34;;;;;;;15.30;13.43;;;;;;;;;;6182122;28;20241;-64
2021/12/13 09:23:55;;;;;;;17.63;14.53;;;;;;;;;;6187289;28;20238;-64
2021/12/13 09:27:28;;;;;;;18.40;16.40;;;;;;;;;;6178487;28;20831;-64
2021/12/13 09:30:54;;;;;;;17.20;15.40;;;;;;;;;;6177825;28;20245;-63
2021/12/13 09:34:20;;;;;;;17.73;15.97;;;;;;;;;;6180146;28;20611;-63
2021/12/13 09:37:41;;;;;;;17.03;14.13;;;;;;;;;;6184366;28;20321;-61
2021/12/13 09:41:08;;;;;;;17.73;14.13;;;;;;;;;;6190857;28;20245;-64
2021/12/13 09:44:33;;;;;;;14.73;13.17;;;;;;;;;;6183328;28;20225;-62
2021/12/13 09:47:55;;;;;;;18.47;15.30;;;;;;;;;;6170527;28;20230;-64
2021/12/13 09:51:20;;;;;;;16.67;14.43;;;;;;;;;;6187854;28;20218;-63
2021/12/13 09:54:44;;;;;;;15.80;14.20;;;;;;;;;;6186931;28;20229;-63
2021/12/13 09:58:08;;;;;;;15.07;13.50;;;;;;;;;;6183567;28;20237;-64
2021/12/13 10:01:32;;;;;;;14.43;12.90;;;;;;;;;;6181460;28;20242;-63
2021/12/13 10:04:54;;;;;;;22.07;15.13;;;;;;;;;;6180919;28;20234;-63
2021/12/13 10:08:19;;;;;;;14.60;11.43;;;;;;;;;;6186182;28;20516;-63
2021/12/13 10:11:43;;;;;;;16.83;14.57;;;;;;;;;;6171442;28;20231;-64
2021/12/13 10:15:08;;;;;;;16.37;12.80;;;;;;;;;;6187838;28;20241;-63
2021/12/13 10:18:32;;;;;;;18.43;15.33;;;;;;;;;;6186035;28;20257;-62
2021/12/13 10:21:54;;;;;;;12.40;11.10;;;;;;;;;;6180991;28;20245;-63
2021/12/13 10:25:21;;;;;;;12.40;11.00;;;;;;;;;;6183704;28;20238;-63
2021/12/13 10:28:52;;;;;;;12.83;11.47;;;;;;;;;;6183513;28;20577;-63
2021/12/13 10:32:15;;;;;;;12.73;10.93;;;;;;;;;;6185675;28;20599;-64
2021/12/13 10:35:39;;;;;;;14.10;11.67;;;;;;;;;;6188646;28;20237;-63
2021/12/13 10:39:03;;;;;;;12.43;10.90;;;;;;;;;;6185584;28;20657;-64
2021/12/13 10:42:29;;;;;;;10.83;9.33;;;;;;;;;;6176247;28;20563;-63
2021/12/13 10:45:54;;;;;;;11.73;9.37;;;;;;;;;;6174270;28;20309;-63
2021/12/13 10:49:18;;;;;;;19.17;9.47;;;;;;;;;;6187649;28;20217;-64
2021/12/13 10:52:48;;;;;;;10.40;9.30;;;;;;;;;;6186560;28;20225;-64
2021/12/13 10:56:13;;;;;;;10.20;8.40;;;;;;;;;;6180392;28;20244;-63
2021/12/13 10:59:36;;;;;;;12.00;9.30;;;;;;;;;;6168133;28;20325;-63
2021/12/13 11:03:00;;;;;;;9.83;8.90;;;;;;;;;;6185506;28;20230;-62
2021/12/13 11:06:21;;;;;;;11.13;8.40;;;;;;;;;;6173703;28;20612;-63
2021/12/13 11:09:44;;;;;;;9.07;7.67;;;;;;;;;;6177867;28;20611;-63
2021/12/13 11:13:05;;;;;;;8.80;7.90;;;;;;;;;;6186245;28;20222;-62
2021/12/13 11:16:30;;;;;;;9.40;7.73;;;;;;;;;;6181540;28;20225;-63
2021/12/13 11:19:53;;;;;;;8.00;7.20;;;;;;;;;;6182878;28;20257;-64
2021/12/13 11:23:16;;;;;;;7.43;6.60;;;;;;;;;;6167031;28;20284;-63
2021/12/13 11:26:39;;;;;;;8.00;7.20;;;;;;;;;;6186142;28;20323;-63
2021/12/13 11:30:05;;;;;;;10.17;8.20;;;;;;;;;;6184164;28;20235;-63
2021/12/13 11:33:59;;;;;;;7.67;6.97;;;;;;;;;;6191268;28;20264;-63
2021/12/13 11:37:36;;;;;;;10.47;8.80;;;;;;;;;;6191530;28;20233;-63
2021/12/13 11:41:25;;;;;;;9.53;8.57;;;;;;;;;;6188353;28;20230;-63
2021/12/13 11:45:08;;;;;;;9.90;8.83;;;;;;;;;;6186315;28;20237;-63
2021/12/13 11:48:57;;;;;;;11.10;9.17;;;;;;;;;;6187410;28;20237;-64
2021/12/13 11:52:43;;;;;;;11.83;9.17;;;;;;;;;;6186324;28;20226;-63
2021/12/13 11:56:19;;;;;;;12.60;10.40;;;;;;;;;;6186454;28;20249;-63
2021/12/13 11:59:51;;;;;;;14.60;10.90;;;;;;;;;;6185371;28;20624;-64
2021/12/13 12:03:55;;;;;;;14.13;11.87;;;;;;;;;;6186032;28;20230;-63
2021/12/13 12:07:33;;;;;;;13.60;12.20;;;;;;;;;;6182224;28;20221;-63
2021/12/13 12:11:07;;;;;;;13.03;11.77;;;;;;;;;;6189359;28;20635;-62
2021/12/13 12:14:29;;;;;;;14.40;12.97;;;;;;;;;;6184871;28;20229;-62
2021/12/13 12:17:50;;;;;;;13.17;11.90;;;;;;;;;;6186847;28;20332;-62
2021/12/13 12:21:35;;;;;;;12.80;11.03;;;;;;;;;;6188830;28;20547;-60
2021/12/13 12:25:00;;;;;;;13.87;12.53;;;;;;;;;;6187425;28;20234;-63
2021/12/13 12:28:21;;;;;;;14.13;12.63;;;;;;;;;;6183737;28;20222;-63
2021/12/13 12:31:44;;;;;;;13.53;11.87;;;;;;;;;;6159676;28;20242;-64
2021/12/13 12:35:11;;;;;;;14.40;12.87;;;;;;;;;;6165037;28;20226;-63
2021/12/13 12:39:26;;;;;;;15.90;14.20;;;;;;;;;;6183448;28;20238;-63
2021/12/13 12:42:50;;;;;;;14.37;12.27;;;;;;;;;;6179614;28;20226;-62
2021/12/13 12:46:13;;;;;;;20.63;13.63;;;;;;;;;;6172782;28;20234;-63
2021/12/13 12:49:35;;;;;;;14.73;12.33;;;;;;;;;;6181304;28;20237;-63
2021/12/13 12:52:59;;;;;;;14.23;12.83;;;;;;;;;;6187767;28;20237;-61
2021/12/13 12:56:25;;;;;;;15.10;13.50;;;;;;;;;;6189912;28;20230;-61
2021/12/13 12:59:47;;;;;;;15.93;12.93;;;;;;;;;;6187428;28;20242;-64
2021/12/13 13:03:10;;;;;;;12.03;10.63;;;;;;;;;;6180697;28;20651;-62
2021/12/13 13:06:32;;;;;;;13.77;12.27;;;;;;;;;;6183769;28;20687;-62
2021/12/13 13:09:56;;;;;;;15.23;11.67;;;;;;;;;;6187169;28;20222;-62
2021/12/13 13:13:18;;;;;;;16.47;12.43;;;;;;;;;;6185590;28;20260;-62
2021/12/13 13:16:44;;;;;;;16.33;12.87;;;;;;;;;;6180153;28;20237;-63
2021/12/13 13:20:08;;;;;;;15.73;13.50;;;;;;;;;;6179208;28;20234;-62
2021/12/13 13:23:38;;;;;;;15.97;13.17;;;;;;;;;;6180791;28;20225;-61
2021/12/13 13:27:01;;;;;;;13.43;11.87;;;;;;;;;;6187118;28;20609;-62
2021/12/13 13:30:30;;;;;;;15.90;11.93;;;;;;;;;;6184932;28;20238;-62
2021/12/13 13:33:56;;;;;;;15.33;12.00;;;;;;;;;;6165040;28;20451;-65
2021/12/13 13:37:19;;;;;;;15.43;12.00;;;;;;;;;;6171457;28;20230;-63
2021/12/13 13:40:40;;;;;;;16.37;13.77;;;;;;;;;;6179358;28;20340;-62
2021/12/13 13:44:08;;;;;;;13.40;12.00;;;;;;;;;;6189150;28;20320;-63
2021/12/13 13:47:32;;;;;;;15.37;13.73;;;;;;;;;;6187327;28;20260;-62
2021/12/13 13:50:57;;;;;;;13.90;12.67;;;;;;;;;;6187133;28;20234;-62
2021/12/13 13:54:18;;;;;;;15.50;12.63;;;;;;;;;;6178668;28;20233;-62
2021/12/13 13:57:39;;;;;;;16.17;13.23;;;;;;;;;;6181326;28;20563;-62
2021/12/13 14:01:03;;;;;;;14.33;12.47;;;;;;;;;;6188083;28;20241;-63
2021/12/13 14:04:26;;;;;;;15.27;13.67;;;;;;;;;;6186588;28;20225;-62
2021/12/13 14:07:49;;;;;;;14.50;13.07;;;;;;;;;;6188694;28;20230;-63
2021/12/13 14:11:13;;;;;;;17.80;13.70;;;;;;;;;;6184161;28;20237;-62
2021/12/13 14:14:40;;;;;;;15.53;13.87;;;;;;;;;;6180141;28;20316;-63
2021/12/13 14:18:04;;;;;;;18.30;13.17;;;;;;;;;;6185896;28;20519;-63
2021/12/13 14:21:28;;;;;;;16.53;14.87;;;;;;;;;;6185671;28;20230;-64
2021/12/13 14:24:51;;;;;;;15.10;12.60;;;;;;;;;;6186326;28;20635;-63
2021/12/13 14:28:21;;;;;;;15.67;13.23;;;;;;;;;;6184214;28;20316;-64
2021/12/13 14:31:45;;;;;;;16.00;13.27;;;;;;;;;;6187458;28;20241;-63
2021/12/13 14:35:15;;;;;;;17.77;14.77;;;;;;;;;;6182050;28;20316;-63
2021/12/13 14:38:37;;;;;;;16.70;14.90;;;;;;;;;;6187487;28;20221;-63
2021/12/13 14:42:01;;;;;;;20.50;16.10;;;;;;;;;;6188790;28;20304;-61
2021/12/13 14:45:21;;;;;;;19.53;15.80;;;;;;;;;;6194921;28;20369;-63
2021/12/13 14:48:43;;;;;;;18.57;16.20;;;;;;;;;;6184527;28;20320;-62
2021/12/13 14:52:08;;;;;;;20.97;16.30;;;;;;;;;;6188272;28;20233;-63
2021/12/13 14:55:32;;;;;;;18.00;15.73;;;;;;;;;;6186523;28;20325;-62
2021/12/13 14:58:57;;;;;;;15.60;14.10;;;;;;;;;;6186741;28;20238;-62
2021/12/13 15:02:26;;;;;;;16.27;14.57;;;;;;;;;;6174483;28;20245;-63
2021/12/13 15:05:51;;;;;;;18.53;16.40;;;;;;;;;;6185716;28;20222;-63
2021/12/13 15:09:20;;;;;;;17.27;15.47;;;;;;;;;;6177703;28;20235;-62
2021/12/13 15:12:44;;;;;;;17.87;16.07;;;;;;;;;;6189671;28;20749;-62
2021/12/13 15:16:12;;;;;;;19.37;17.27;;;;;;;;;;6189285;28;20238;-62
2021/12/13 15:19:33;;;;;;;16.50;14.97;;;;;;;;;;6190066;28;20225;-63
2021/12/13 15:22:56;;;;;;;17.77;15.77;;;;;;;;;;6190558;28;20242;-62
2021/12/13 15:26:21;;;;;;;18.07;15.97;;;;;;;;;;6195300;28;20495;-63
2021/12/13 15:29:43;;;;;;;20.47;16.00;;;;;;;;;;6192356;28;20230;-62
2021/12/13 15:33:07;;;;;;;19.53;17.50;;;;;;;;;;6190092;28;20234;-63
2021/12/13 15:36:29;;;;;;;19.07;17.13;;;;;;;;;;6178365;28;20691;-58
2021/12/13 15:40:15;;;;;;;18.27;16.17;;;;;;;;;;6186658;28;20229;-62
2021/12/13 15:43:39;;;;;;;18.37;16.03;;;;;;;;;;6189496;28;20827;-62
2021/12/13 15:47:00;;;;;;;17.53;15.70;;;;;;;;;;6187147;28;20222;-61
2021/12/13 15:50:28;;;;;;;20.23;17.33;;;;;;;;;;6187314;28;20603;-62
2021/12/13 15:53:50;;;;;;;18.80;16.73;;;;;;;;;;6189680;28;20605;-62
2021/12/13 15:57:14;;;;;;;18.43;16.47;;;;;;;;;;6189738;28;20222;-62
2021/12/13 16:00:36;;;;;;;19.57;16.40;;;;;;;;;;6191758;28;20237;-61
2021/12/13 16:03:59;;;;;;;24.00;18.23;;;;;;;;;;6182860;28;20255;-62
2021/12/13 16:07:22;;;;;;;20.37;18.20;;;;;;;;;;6187804;28;20612;-62
2021/12/13 16:10:44;;;;;;;19.70;17.70;;;;;;;;;;6184082;28;20234;-62
2021/12/13 16:14:24;;;;;;;20.40;18.37;;;;;;;;;;6187710;28;20230;-63
2021/12/13 16:17:48;;;;;;;17.90;16.00;;;;;;;;;;6187609;28;20225;-62
2021/12/13 16:21:09;;;;;;;19.40;17.30;;;;;;;;;;6186820;28;20234;-63
2021/12/13 16:24:32;;;;;;;19.90;17.37;;;;;;;;;;6190635;28;20812;-63
2021/12/13 16:27:55;;;;;;;18.00;16.30;;;;;;;;;;6191960;28;20245;-62
2021/12/13 16:31:18;;;;;;;19.60;17.70;;;;;;;;;;6179880;28;20229;-62
2021/12/13 16:34:39;;;;;;;18.90;16.60;;;;;;;;;;6165034;28;21431;-62
2021/12/13 16:38:01;;;;;;;20.90;17.47;;;;;;;;;;6188889;28;20611;-62
2021/12/13 16:41:25;;;;;;;19.30;17.37;;;;;;;;;;6191382;28;20222;-62
2021/12/13 16:44:49;;;;;;;18.00;15.63;;;;;;;;;;6186876;28;20237;-62
2021/12/13 16:48:10;;;;;;;18.80;16.27;;;;;;;;;;6191096;28;20225;-63
2021/12/13 16:51:34;;;;;;;19.27;17.20;;;;;;;;;;6189006;28;20233;-64
2021/12/13 16:54:58;;;;;;;17.47;15.57;;;;;;;;;;6190839;28;20238;-63
2021/12/13 16:58:21;;;;;;;20.70;18.63;;;;;;;;;;6189178;28;20292;-63
2021/12/13 17:01:46;;;;;;;20.23;18.43;;;;;;;;;;6185235;28;20328;-62
2021/12/13 17:05:12;;;;;;;18.97;16.43;;;;;;;;;;6198948;28;20237;-63
2021/12/13 17:08:37;;;;;;;20.07;17.97;;;;;;;;;;6180600;28;22057;-63
2021/12/13 17:12:08;;;;;;;20.63;18.43;;;;;;;;;;6188036;28;20265;-64
2021/12/13 17:15:38;;;;;;;20.47;18.57;;;;;;;;;;6182399;28;20312;-64
2021/12/13 17:19:03;;;;;;;20.90;18.77;;;;;;;;;;6166066;28;20237;-62
2021/12/13 17:22:25;;;;;;;18.80;16.90;;;;;;;;;;6184627;28;20567;-64
2021/12/13 17:25:46;;;;;;;21.07;19.03;;;;;;;;;;6180642;28;21851;-64
2021/12/13 17:29:13;;;;;;;21.57;18.17;;;;;;;;;;6189298;28;20230;-63
2021/12/13 17:32:36;;;;;;;21.23;19.03;;;;;;;;;;6186782;28;20233;-64
2021/12/13 17:35:57;;;;;;;21.23;19.03;;;;;;;;;;6188354;28;20588;-64
2021/12/13 17:39:25;;;;;;;21.53;19.53;;;;;;;;;;6189689;28;20226;-63
2021/12/13 17:42:48;;;;;;;21.27;18.93;;;;;;;;;;6188298;28;20236;-63
2021/12/13 17:46:12;;;;;;;19.07;17.37;;;;;;;;;;6185538;28;20225;-63
2021/12/13 17:49:52;;;;;;;22.83;19.30;;;;;;;;;;6162501;28;20608;-62
2021/12/13 17:53:19;;;;;;;21.43;19.13;;;;;;;;;;6188330;28;20392;-62
2021/12/13 17:56:43;;;;;;;18.83;16.73;;;;;;;;;;6189636;28;20635;-63
2021/12/13 18:00:36;;;;;;;23.33;18.37;;;;;;;;;;6175563;28;20309;-63
2021/12/13 18:04:10;;;;;;;23.97;19.10;;;;;;;;;;6182353;28;20671;-64
2021/12/13 18:07:34;;;;;;;22.13;19.90;;;;;;;;;;6190599;28;20225;-64
2021/12/13 18:10:54;;;;;;;21.57;19.47;;;;;;;;;;6180544;28;20765;-63
2021/12/13 18:14:24;;;;;;;23.03;20.73;;;;;;;;;;6187167;28;20225;-63
2021/12/13 18:17:49;;;;;;;19.83;17.93;;;;;;;;;;6188832;28;20512;-63
2021/12/13 18:21:11;;;;;;;21.03;18.70;;;;;;;;;;6181484;28;20226;-62
2021/12/13 18:24:38;;;;;;;19.10;17.20;;;;;;;;;;6151240;28;20262;-63
2021/12/13 18:28:01;;;;;;;20.43;18.20;;;;;;;;;;6177681;28;20332;-63
2021/12/13 18:31:26;;;;;;;21.60;18.70;;;;;;;;;;6179972;28;20230;-63
2021/12/13 18:34:47;;;;;;;21.07;19.03;;;;;;;;;;6176039;28;20785;-63
2021/12/13 18:38:29;;;;;;;21.47;17.53;;;;;;;;;;6175895;28;20241;-64
2021/12/13 18:41:54;;;;;;;20.03;17.30;;;;;;;;;;6181217;28;20333;-66
2021/12/13 18:45:20;;;;;;;20.90;18.80;;;;;;;;;;6188685;28;20229;-64
2021/12/13 18:48:51;;;;;;;18.83;16.97;;;;;;;;;;6183850;28;20234;-64
2021/12/13 18:52:38;;;;;;;22.17;19.77;;;;;;;;;;6188277;28;20233;-63
2021/12/13 18:56:07;;;;;;;20.70;18.57;;;;;;;;;;6176330;28;20833;-64
2021/12/13 18:59:31;;;;;;;23.87;20.27;;;;;;;;;;6184309;28;20237;-65
2021/12/13 19:02:55;;;;;;;21.33;19.27;;;;;;;;;;6185619;28;20256;-64
2021/12/13 19:06:17;;;;;;;20.60;18.50;;;;;;;;;;6184372;28;20234;-63
2021/12/13 19:09:40;;;;;;;20.10;18.20;;;;;;;;;;6177073;28;20234;-64
2021/12/13 19:13:01;;;;;;;25.33;20.83;;;;;;;;;;6173557;28;20238;-64
2021/12/13 19:16:35;;;;;;;19.30;17.53;;;;;;;;;;6182864;28;20234;-65
2021/12/13 19:19:59;;;;;;;21.10;19.00;;;;;;;;;;6186719;28;20225;-64
2021/12/13 19:23:26;;;;;;;20.40;18.13;;;;;;;;;;6196332;28;20233;-63
2021/12/13 19:26:49;;;;;;;19.50;17.50;;;;;;;;;;6185270;28;20234;-65
2021/12/13 19:30:14;;;;;;;19.17;17.17;;;;;;;;;;6186619;28;20214;-63
2021/12/13 19:33:39;;;;;;;20.77;18.77;;;;;;;;;;6176988;28;20226;-63
2021/12/13 19:37:04;;;;;;;20.70;18.63;;;;;;;;;;6183235;28;20226;-64
2021/12/13 19:40:33;;;;;;;20.33;18.20;;;;;;;;;;6173514;28;20238;-63
2021/12/13 19:43:57;;;;;;;23.27;21.00;;;;;;;;;;6181459;28;20635;-63
2021/12/13 19:47:25;;;;;;;20.43;18.37;;;;;;;;;;6189647;28;20233;-64
2021/12/13 19:50:52;;;;;;;22.60;20.23;;;;;;;;;;6190774;28;20304;-63
2021/12/13 19:54:17;;;;;;;20.93;18.97;;;;;;;;;;6192497;28;20237;-62
2021/12/13 19:57:41;;;;;;;19.30;17.37;;;;;;;;;;6186449;28;20238;-63
2021/12/13 20:01:08;;;;;;;21.83;19.47;;;;;;;;;;6187066;28;20306;-63
2021/12/13 20:04:32;;;;;;;20.07;18.13;;;;;;;;;;6183701;28;20612;-64